sensor_id;sensor_type;location;lat;lon;timestamp;pressure;altitude;pressure_sealevel;temperature;humidity
61086;BME280;46967;48.876;2.136;2023-04-01T00:00:11;100084.63;;;10.23;86.37
61086;BME280;46967;48.876;2.136;2023-04-01T00:02:37;100080.16;;;10.27;86.62
61086;BME280;46967;48.876;2.136;2023-04-01T00:05:02;100096.00;;;10.19;87.46
61086;BME280;46967;48.876;2.136;2023-04-01T00:07:28;100088.75;;;10.27;87.08
61086;BME280;46967;48.876;2.136;2023-04-01T00:09:54;100098.25;;;10.28;87.36
61086;BME280;46967;48.876;2.136;2023-04-01T00:12:19;100105.06;;;10.31;87.00
61086;BME280;46967;48.876;2.136;2023-04-01T00:14:45;100097.25;;;10.32;86.95
61086;BME280;46967;48.876;2.136;2023-04-01T00:17:10;100098.13;;;10.31;87.08
61086;BME280;46967;48.876;2.136;2023-04-01T00:19:36;100092.94;;;10.31;87.16
61086;BME280;46967;48.876;2.136;2023-04-01T00:22:02;100092.91;;;10.33;87.46
61086;BME280;46967;48.876;2.136;2023-04-01T00:24:27;100089.00;;;10.21;88.08
61086;BME280;46967;48.876;2.136;2023-04-01T00:26:53;100068.38;;;10.18;88.02
61086;BME280;46967;48.876;2.136;2023-04-01T00:29:18;100104.84;;;10.15;88.21
61086;BME280;46967;48.876;2.136;2023-04-01T00:31:43;100105.25;;;10.26;88.14
61086;BME280;46967;48.876;2.136;2023-04-01T00:34:09;100092.59;;;10.19;88.79
61086;BME280;46967;48.876;2.136;2023-04-01T00:36:35;100095.13;;;10.20;88.80
61086;BME280;46967;48.876;2.136;2023-04-01T00:39:00;100090.72;;;10.22;88.66
61086;BME280;46967;48.876;2.136;2023-04-01T00:41:25;100100.91;;;10.27;88.59
61086;BME280;46967;48.876;2.136;2023-04-01T00:43:51;100097.59;;;10.23;88.57
61086;BME280;46967;48.876;2.136;2023-04-01T00:46:17;100099.25;;;10.24;88.48
61086;BME280;46967;48.876;2.136;2023-04-01T00:48:51;100101.72;;;10.27;88.33
61086;BME280;46967;48.876;2.136;2023-04-01T00:51:26;100102.72;;;10.25;88.31
61086;BME280;46967;48.876;2.136;2023-04-01T00:53:55;100101.19;;;10.19;89.46
61086;BME280;46967;48.876;2.136;2023-04-01T00:56:24;100101.38;;;10.14;90.86
61086;BME280;46967;48.876;2.136;2023-04-01T00:58:56;100097.28;;;10.09;91.11
61086;BME280;46967;48.876;2.136;2023-04-01T01:01:24;100095.72;;;10.05;92.71
61086;BME280;46967;48.876;2.136;2023-04-01T01:03:50;100112.03;;;10.07;92.29
61086;BME280;46967;48.876;2.136;2023-04-01T01:09:23;100089.31;;;9.91;93.00
61086;BME280;46967;48.876;2.136;2023-04-01T01:14:40;100102.09;;;9.96;92.28
61086;BME280;46967;48.876;2.136;2023-04-01T01:17:22;100096.97;;;9.94;92.49
61086;BME280;46967;48.876;2.136;2023-04-01T01:27:34;100104.56;;;9.99;91.68
61086;BME280;46967;48.876;2.136;2023-04-01T01:33:00;100094.94;;;10.03;91.97
61086;BME280;46967;48.876;2.136;2023-04-01T01:38:14;100103.13;;;9.92;94.21
61086;BME280;46967;48.876;2.136;2023-04-01T01:40:43;100105.03;;;9.87;95.49
61086;BME280;46967;48.876;2.136;2023-04-01T01:43:12;100104.28;;;9.83;97.38
61086;BME280;46967;48.876;2.136;2023-04-01T01:45:43;100109.72;;;9.77;97.56
61086;BME280;46967;48.876;2.136;2023-04-01T01:48:11;100109.72;;;9.77;97.37
61086;BME280;46967;48.876;2.136;2023-04-01T01:50:37;100108.69;;;9.81;97.32
61086;BME280;46967;48.876;2.136;2023-04-01T01:53:06;100124.31;;;9.79;97.68
61086;BME280;46967;48.876;2.136;2023-04-01T01:55:34;100124.41;;;9.76;97.23
61086;BME280;46967;48.876;2.136;2023-04-01T01:58:23;100109.78;;;9.75;97.83
61086;BME280;46967;48.876;2.136;2023-04-01T02:01:01;100110.91;;;9.68;98.45
61086;BME280;46967;48.876;2.136;2023-04-01T02:03:30;100129.88;;;9.69;98.77
61086;BME280;46967;48.876;2.136;2023-04-01T02:05:59;100121.03;;;9.74;98.14
61086;BME280;46967;48.876;2.136;2023-04-01T02:08:49;100120.44;;;9.68;98.37
61086;BME280;46967;48.876;2.136;2023-04-01T02:11:18;100122.91;;;9.71;98.40
61086;BME280;46967;48.876;2.136;2023-04-01T02:13:56;100131.81;;;9.64;98.30
61086;BME280;46967;48.876;2.136;2023-04-01T02:16:36;100126.34;;;9.71;97.55
61086;BME280;46967;48.876;2.136;2023-04-01T02:19:05;100117.72;;;9.71;97.04
61086;BME280;46967;48.876;2.136;2023-04-01T02:21:35;100124.41;;;9.76;96.40
61086;BME280;46967;48.876;2.136;2023-04-01T02:24:04;100114.84;;;9.78;96.10
61086;BME280;46967;48.876;2.136;2023-04-01T02:26:31;100113.16;;;9.77;95.41
61086;BME280;46967;48.876;2.136;2023-04-01T02:28:59;100116.41;;;9.83;93.99
61086;BME280;46967;48.876;2.136;2023-04-01T02:31:26;100125.94;;;9.82;93.44
61086;BME280;46967;48.876;2.136;2023-04-01T02:33:53;100111.66;;;9.94;93.17
61086;BME280;46967;48.876;2.136;2023-04-01T02:36:19;100122.91;;;9.94;91.97
61086;BME280;46967;48.876;2.136;2023-04-01T02:38:45;100119.50;;;9.92;92.40
61086;BME280;46967;48.876;2.136;2023-04-01T02:41:11;100122.31;;;9.86;92.90
61086;BME280;46967;48.876;2.136;2023-04-01T02:43:37;100128.97;;;9.93;92.49
61086;BME280;46967;48.876;2.136;2023-04-01T02:46:03;100133.28;;;9.94;92.16
61086;BME280;46967;48.876;2.136;2023-04-01T02:48:28;100130.91;;;9.88;92.73
61086;BME280;46967;48.876;2.136;2023-04-01T02:50:54;100137.66;;;9.92;92.17
61086;BME280;46967;48.876;2.136;2023-04-01T02:53:19;100132.47;;;9.92;91.07
61086;BME280;46967;48.876;2.136;2023-04-01T02:55:45;100128.16;;;9.93;91.33
61086;BME280;46967;48.876;2.136;2023-04-01T02:58:11;100137.53;;;9.95;90.89
61086;BME280;46967;48.876;2.136;2023-04-01T03:00:37;100136.75;;;9.93;90.98
61086;BME280;46967;48.876;2.136;2023-04-01T03:03:02;100142.59;;;9.98;90.47
61086;BME280;46967;48.876;2.136;2023-04-01T03:05:28;100146.28;;;9.93;90.97
61086;BME280;46967;48.876;2.136;2023-04-01T03:07:53;100142.94;;;9.89;91.52
61086;BME280;46967;48.876;2.136;2023-04-01T03:10:19;100151.47;;;9.93;91.41
61086;BME280;46967;48.876;2.136;2023-04-01T03:12:44;100158.44;;;9.91;91.34
61086;BME280;46967;48.876;2.136;2023-04-01T03:15:12;100150.94;;;9.83;92.10
61086;BME280;46967;48.876;2.136;2023-04-01T03:17:38;100158.66;;;9.85;91.59
61086;BME280;46967;48.876;2.136;2023-04-01T03:20:05;100144.19;;;9.79;92.41
61086;BME280;46967;48.876;2.136;2023-04-01T03:22:31;100163.97;;;9.82;92.55
61086;BME280;46967;48.876;2.136;2023-04-01T03:24:56;100176.81;;;9.85;92.65
61086;BME280;46967;48.876;2.136;2023-04-01T03:27:22;100176.19;;;9.78;92.95
61086;BME280;46967;48.876;2.136;2023-04-01T03:29:48;100163.97;;;9.82;93.08
61086;BME280;46967;48.876;2.136;2023-04-01T03:32:13;100176.81;;;9.85;92.97
61086;BME280;46967;48.876;2.136;2023-04-01T03:34:39;100172.75;;;9.77;93.21
61086;BME280;46967;48.876;2.136;2023-04-01T03:37:04;100165.72;;;9.81;93.39
61086;BME280;46967;48.876;2.136;2023-04-01T03:39:31;100175.31;;;9.79;92.24
61086;BME280;46967;48.876;2.136;2023-04-01T03:41:56;100174.09;;;9.88;92.19
61086;BME280;46967;48.876;2.136;2023-04-01T03:44:22;100166.50;;;9.83;91.18
61086;BME280;46967;48.876;2.136;2023-04-01T03:46:47;100174.31;;;9.82;91.70
61086;BME280;46967;48.876;2.136;2023-04-01T03:49:12;100178.56;;;9.84;91.03
61086;BME280;46967;48.876;2.136;2023-04-01T03:51:39;100174.75;;;9.94;89.34
61086;BME280;46967;48.876;2.136;2023-04-01T03:54:04;100173.00;;;9.95;89.11
61086;BME280;46967;48.876;2.136;2023-04-01T03:56:31;100177.28;;;9.96;89.35
61086;BME280;46967;48.876;2.136;2023-04-01T03:59:02;100176.31;;;9.98;89.10
61086;BME280;46967;48.876;2.136;2023-04-01T04:01:27;100180.75;;;9.95;89.05
61086;BME280;46967;48.876;2.136;2023-04-01T04:03:52;100182.25;;;10.01;88.71
61086;BME280;46967;48.876;2.136;2023-04-01T04:06:18;100190.09;;;9.99;88.79
61086;BME280;46967;48.876;2.136;2023-04-01T04:08:44;100193.44;;;10.03;88.75
61086;BME280;46967;48.876;2.136;2023-04-01T04:11:10;100195.00;;;10.07;88.75
61086;BME280;46967;48.876;2.136;2023-04-01T04:13:35;100194.06;;;10.09;88.95
61086;BME280;46967;48.876;2.136;2023-04-01T04:16:02;100206.97;;;10.11;88.70
61086;BME280;46967;48.876;2.136;2023-04-01T04:18:28;100201.22;;;10.03;88.37
61086;BME280;46967;48.876;2.136;2023-04-01T04:20:53;100205.53;;;10.02;88.74
61086;BME280;46967;48.876;2.136;2023-04-01T04:23:19;100211.81;;;9.96;89.25
61086;BME280;46967;48.876;2.136;2023-04-01T04:26:02;100208.03;;;10.05;88.36
61086;BME280;46967;48.876;2.136;2023-04-01T04:28:28;100207.19;;;10.05;87.90
61086;BME280;46967;48.876;2.136;2023-04-01T04:30:54;100201.28;;;10.01;88.14
61086;BME280;46967;48.876;2.136;2023-04-01T04:33:21;100195.06;;;10.05;88.23
61086;BME280;46967;48.876;2.136;2023-04-01T04:35:46;100206.47;;;10.01;88.12
61086;BME280;46967;48.876;2.136;2023-04-01T04:38:11;100205.72;;;9.97;87.78
61086;BME280;46967;48.876;2.136;2023-04-01T04:40:38;100197.66;;;10.05;88.07
61086;BME280;46967;48.876;2.136;2023-04-01T04:43:03;100205.38;;;10.07;87.27
61086;BME280;46967;48.876;2.136;2023-04-01T04:45:29;100209.56;;;10.11;86.75
61086;BME280;46967;48.876;2.136;2023-04-01T04:47:56;100201.66;;;10.14;86.17
61086;BME280;46967;48.876;2.136;2023-04-01T04:50:22;100207.03;;;10.09;85.73
61086;BME280;46967;48.876;2.136;2023-04-01T04:52:48;100211.53;;;10.04;86.01
61086;BME280;46967;48.876;2.136;2023-04-01T04:55:13;100211.25;;;10.12;85.06
61086;BME280;46967;48.876;2.136;2023-04-01T04:57:40;100211.38;;;10.09;85.87
61086;BME280;46967;48.876;2.136;2023-04-01T05:00:06;100205.47;;;10.04;85.96
61086;BME280;46967;48.876;2.136;2023-04-01T05:02:31;100214.84;;;10.08;84.91
61086;BME280;46967;48.876;2.136;2023-04-01T05:04:57;100213.25;;;10.04;84.87
61086;BME280;46967;48.876;2.136;2023-04-01T05:07:22;100208.84;;;10.07;84.52
61086;BME280;46967;48.876;2.136;2023-04-01T05:09:47;100221.69;;;10.10;84.71
61086;BME280;46967;48.876;2.136;2023-04-01T05:12:13;100225.13;;;10.11;84.52
61086;BME280;46967;48.876;2.136;2023-04-01T05:14:38;100220.81;;;10.10;84.57
61086;BME280;46967;48.876;2.136;2023-04-01T05:17:04;100214.97;;;10.05;84.53
61086;BME280;46967;48.876;2.136;2023-04-01T05:19:29;100224.28;;;10.10;84.24
61086;BME280;46967;48.876;2.136;2023-04-01T05:21:54;100231.13;;;10.11;84.91
61086;BME280;46967;48.876;2.136;2023-04-01T05:24:20;100227.81;;;10.08;85.01
61086;BME280;46967;48.876;2.136;2023-04-01T05:26:45;100241.63;;;10.08;84.26
61086;BME280;46967;48.876;2.136;2023-04-01T05:29:11;100235.66;;;10.06;84.33
61086;BME280;46967;48.876;2.136;2023-04-01T05:31:36;100232.22;;;10.06;84.48
61086;BME280;46967;48.876;2.136;2023-04-01T05:34:02;100233.34;;;9.98;84.68
61086;BME280;46967;48.876;2.136;2023-04-01T05:36:30;100246.47;;;9.94;84.84
61086;BME280;46967;48.876;2.136;2023-04-01T05:38:56;100247.84;;;10.04;84.21
61086;BME280;46967;48.876;2.136;2023-04-01T05:41:21;100259.88;;;10.05;84.17
61086;BME280;46967;48.876;2.136;2023-04-01T05:43:46;100249.72;;;9.99;84.22
61086;BME280;46967;48.876;2.136;2023-04-01T05:46:12;100255.66;;;10.03;83.82
61086;BME280;46967;48.876;2.136;2023-04-01T05:48:37;100255.94;;;9.95;84.42
61086;BME280;46967;48.876;2.136;2023-04-01T05:51:03;100262.94;;;9.93;84.69
61086;BME280;46967;48.876;2.136;2023-04-01T05:53:29;100253.06;;;10.03;84.39
61086;BME280;46967;48.876;2.136;2023-04-01T05:55:54;100259.88;;;10.05;84.42
61086;BME280;46967;48.876;2.136;2023-04-01T05:58:20;100269.00;;;9.92;85.25
61086;BME280;46967;48.876;2.136;2023-04-01T06:00:45;100266.19;;;9.98;85.02
61086;BME280;46967;48.876;2.136;2023-04-01T06:03:10;100267.88;;;9.99;84.93
61086;BME280;46967;48.876;2.136;2023-04-01T06:05:41;100269.72;;;9.95;84.79
61086;BME280;46967;48.876;2.136;2023-04-01T06:08:12;100268.84;;;9.96;84.84
61086;BME280;46967;48.876;2.136;2023-04-01T06:24:57;100279.78;;;10.05;83.09
61086;BME280;46967;48.876;2.136;2023-04-01T06:30:16;100300.34;;;10.09;82.11
61086;BME280;46967;48.876;2.136;2023-04-01T06:44:12;100305.50;;;10.11;81.21
61086;BME280;46967;48.876;2.136;2023-04-01T06:46:48;100316.66;;;10.13;81.30
61086;BME280;46967;48.876;2.136;2023-04-01T06:54:33;100309.47;;;10.20;81.11
61086;BME280;46967;48.876;2.136;2023-04-01T06:57:03;100318.91;;;10.22;81.36
61086;BME280;46967;48.876;2.136;2023-04-01T06:59:33;100317.75;;;10.31;80.38
61086;BME280;46967;48.876;2.136;2023-04-01T07:04:53;100317.81;;;10.29;81.09
61086;BME280;46967;48.876;2.136;2023-04-01T07:07:39;100314.47;;;10.26;80.74
61086;BME280;46967;48.876;2.136;2023-04-01T07:10:13;100320.41;;;10.29;80.96
61086;BME280;46967;48.876;2.136;2023-04-01T07:12:51;100316.09;;;10.28;80.79
61086;BME280;46967;48.876;2.136;2023-04-01T07:15:26;100318.56;;;10.33;80.35
61086;BME280;46967;48.876;2.136;2023-04-01T07:17:57;100323.47;;;10.41;79.89
61086;BME280;46967;48.876;2.136;2023-04-01T07:20:30;100326.53;;;10.52;79.11
61086;BME280;46967;48.876;2.136;2023-04-01T07:22:59;100330.66;;;10.56;78.94
61086;BME280;46967;48.876;2.136;2023-04-01T07:28:01;100336.13;;;10.72;78.65
61086;BME280;46967;48.876;2.136;2023-04-01T07:30:33;100340.16;;;10.81;78.85
61086;BME280;46967;48.876;2.136;2023-04-01T07:36:12;100329.28;;;10.93;77.72
61086;BME280;46967;48.876;2.136;2023-04-01T07:43:46;100337.09;;;10.93;77.88
61086;BME280;46967;48.876;2.136;2023-04-01T07:49:15;100351.69;;;10.96;77.49
61086;BME280;46967;48.876;2.136;2023-04-01T07:55:27;100352.19;;;11.28;76.55
61086;BME280;46967;48.876;2.136;2023-04-01T08:02:47;100344.00;;;11.37;75.28
61086;BME280;46967;48.876;2.136;2023-04-01T08:05:25;100347.09;;;11.47;74.58
61086;BME280;46967;48.876;2.136;2023-04-01T08:11:02;100357.84;;;11.59;72.88
61086;BME280;46967;48.876;2.136;2023-04-01T08:16:23;100364.59;;;11.64;71.25
61086;BME280;46967;48.876;2.136;2023-04-01T08:19:14;100359.50;;;11.60;71.48
61086;BME280;46967;48.876;2.136;2023-04-01T08:21:52;100364.13;;;11.54;71.51
61086;BME280;46967;48.876;2.136;2023-04-01T08:24:27;100386.91;;;11.69;71.55
61086;BME280;46967;48.876;2.136;2023-04-01T08:27:03;100384.88;;;11.76;71.00
61086;BME280;46967;48.876;2.136;2023-04-01T08:32:17;100384.13;;;11.74;69.92
61086;BME280;46967;48.876;2.136;2023-04-01T08:34:47;100371.19;;;11.72;70.11
61086;BME280;46967;48.876;2.136;2023-04-01T08:37:28;100382.16;;;11.79;69.61
61086;BME280;46967;48.876;2.136;2023-04-01T08:45:53;100384.09;;;12.17;69.99
61086;BME280;46967;48.876;2.136;2023-04-01T08:48:32;100396.69;;;12.05;70.32
61086;BME280;46967;48.876;2.136;2023-04-01T08:51:19;100391.78;;;11.99;70.61
61086;BME280;46967;48.876;2.136;2023-04-01T08:59:53;100384.41;;;12.09;69.95
61086;BME280;46967;48.876;2.136;2023-04-01T09:05:32;100386.03;;;12.51;69.13
61086;BME280;46967;48.876;2.136;2023-04-01T09:08:16;100379.78;;;12.36;69.54
61086;BME280;46967;48.876;2.136;2023-04-01T09:13:36;100398.72;;;11.99;70.20
61086;BME280;46967;48.876;2.136;2023-04-01T09:16:18;100380.63;;;12.16;69.47
61086;BME280;46967;48.876;2.136;2023-04-01T09:37:07;100393.31;;;12.63;66.82
61086;BME280;46967;48.876;2.136;2023-04-01T09:40:08;100391.28;;;12.70;65.37
61086;BME280;46967;48.876;2.136;2023-04-01T09:43:16;100395.75;;;12.47;64.96
61086;BME280;46967;48.876;2.136;2023-04-01T10:01:52;100410.94;;;13.15;60.57
61086;BME280;46967;48.876;2.136;2023-04-01T10:12:47;100399.50;;;13.37;59.28
61086;BME280;46967;48.876;2.136;2023-04-01T10:49:37;100387.38;;;13.72;54.52
61086;BME280;46967;48.876;2.136;2023-04-01T10:52:29;100415.44;;;13.50;55.51
61086;BME280;46967;48.876;2.136;2023-04-01T10:55:14;100389.75;;;13.77;54.94
61086;BME280;46967;48.876;2.136;2023-04-01T11:09:20;100379.47;;;14.60;52.75
61086;BME280;46967;48.876;2.136;2023-04-01T11:37:19;100393.56;;;13.70;54.87
61086;BME280;46967;48.876;2.136;2023-04-01T11:53:23;100401.03;;;14.46;53.57
61086;BME280;46967;48.876;2.136;2023-04-01T11:56:17;100403.13;;;14.39;53.43
61086;BME280;46967;48.876;2.136;2023-04-01T11:59:37;100402.50;;;14.18;53.79
61086;BME280;46967;48.876;2.136;2023-04-01T12:07:53;100404.72;;;14.26;52.66
61086;BME280;46967;48.876;2.136;2023-04-01T12:10:26;100404.13;;;14.37;51.97
61086;BME280;46967;48.876;2.136;2023-04-01T12:13:17;100390.75;;;14.76;52.55
61086;BME280;46967;48.876;2.136;2023-04-01T12:16:05;100394.69;;;15.01;51.73
61086;BME280;46967;48.876;2.136;2023-04-01T12:18:50;100400.66;;;15.19;51.38
61086;BME280;46967;48.876;2.136;2023-04-01T12:27:03;100394.84;;;15.14;50.79
61086;BME280;46967;48.876;2.136;2023-04-01T12:35:23;100403.84;;;14.59;51.38
61086;BME280;46967;48.876;2.136;2023-04-01T12:40:46;100396.69;;;15.12;50.82
61086;BME280;46967;48.876;2.136;2023-04-01T12:49:06;100383.28;;;16.54;48.36
61086;BME280;46967;48.876;2.136;2023-04-01T12:52:11;100381.50;;;16.54;47.78
61086;BME280;46967;48.876;2.136;2023-04-01T13:06:31;100373.00;;;15.77;49.55
61086;BME280;46967;48.876;2.136;2023-04-01T13:17:04;100378.50;;;15.56;48.95
61086;BME280;46967;48.876;2.136;2023-04-01T13:19:50;100370.06;;;15.98;47.86
61086;BME280;46967;48.876;2.136;2023-04-01T13:24:59;100375.94;;;15.71;49.89
61086;BME280;46967;48.876;2.136;2023-04-01T13:35:46;100382.84;;;15.88;49.48
61086;BME280;46967;48.876;2.136;2023-04-01T13:38:35;100379.88;;;15.94;50.12
61086;BME280;46967;48.876;2.136;2023-04-01T13:41:31;100381.19;;;16.01;50.56
61086;BME280;46967;48.876;2.136;2023-04-01T13:44:37;100380.06;;;16.05;50.83
61086;BME280;46967;48.876;2.136;2023-04-01T14:01:06;100412.63;;;15.23;55.16
61086;BME280;46967;48.876;2.136;2023-04-01T14:03:43;100409.31;;;14.88;54.60
61086;BME280;46967;48.876;2.136;2023-04-01T14:06:18;100409.53;;;14.67;53.21
61086;BME280;46967;48.876;2.136;2023-04-01T14:11:41;100408.97;;;14.78;52.63
61086;BME280;46967;48.876;2.136;2023-04-01T14:27:55;100412.78;;;14.88;49.89
61086;BME280;46967;48.876;2.136;2023-04-01T14:30:35;100415.97;;;14.77;50.27
61086;BME280;46967;48.876;2.136;2023-04-01T14:49:52;100437.97;;;15.05;51.97
61086;BME280;46967;48.876;2.136;2023-04-01T14:52:28;100433.50;;;14.75;51.27
61086;BME280;46967;48.876;2.136;2023-04-01T14:54:54;100432.44;;;14.44;52.84
61086;BME280;46967;48.876;2.136;2023-04-01T14:57:29;100440.16;;;14.30;53.90
61086;BME280;46967;48.876;2.136;2023-04-01T15:00:07;100450.00;;;14.07;55.16
61086;BME280;46967;48.876;2.136;2023-04-01T15:19:38;100542.78;;;12.99;73.43
61086;BME280;46967;48.876;2.136;2023-04-01T15:25:19;100517.41;;;13.23;72.46
61086;BME280;46967;48.876;2.136;2023-04-01T15:28:04;100507.41;;;13.71;73.18
61086;BME280;46967;48.876;2.136;2023-04-01T15:31:11;100519.66;;;13.88;72.80
61086;BME280;46967;48.876;2.136;2023-04-01T15:36:24;100521.47;;;13.86;70.51
61086;BME280;46967;48.876;2.136;2023-04-01T15:44:48;100528.31;;;13.31;68.81
61086;BME280;46967;48.876;2.136;2023-04-01T15:47:53;100546.13;;;12.61;69.78
61086;BME280;46967;48.876;2.136;2023-04-01T15:50:26;100555.63;;;11.99;76.19
61086;BME280;46967;48.876;2.136;2023-04-01T15:56:13;100591.16;;;11.04;85.99
61086;BME280;46967;48.876;2.136;2023-04-01T16:01:59;100576.94;;;11.38;87.28
61086;BME280;46967;48.876;2.136;2023-04-01T16:04:52;100576.97;;;12.07;84.49
61086;BME280;46967;48.876;2.136;2023-04-01T16:10:30;100570.78;;;12.10;83.29
61086;BME280;46967;48.876;2.136;2023-04-01T16:21:01;100589.22;;;12.04;86.26
61086;BME280;46967;48.876;2.136;2023-04-01T16:24:02;100593.66;;;11.78;86.13
61086;BME280;46967;48.876;2.136;2023-04-01T16:26:37;100594.13;;;11.66;86.11
61086;BME280;46967;48.876;2.136;2023-04-01T16:32:18;100596.47;;;11.72;86.92
61086;BME280;46967;48.876;2.136;2023-04-01T16:34:58;100605.44;;;11.65;86.91
61086;BME280;46967;48.876;2.136;2023-04-01T16:37:54;100602.66;;;11.46;86.89
61086;BME280;46967;48.876;2.136;2023-04-01T16:43:20;100616.22;;;11.54;86.04
61086;BME280;46967;48.876;2.136;2023-04-01T16:51:31;100619.34;;;11.38;84.07
61086;BME280;46967;48.876;2.136;2023-04-01T16:54:11;100618.13;;;11.49;84.43
61086;BME280;46967;48.876;2.136;2023-04-01T16:56:45;100623.34;;;11.49;85.78
61086;BME280;46967;48.876;2.136;2023-04-01T17:02:00;100632.41;;;11.37;83.13
61086;BME280;46967;48.876;2.136;2023-04-01T17:04:39;100631.31;;;11.19;84.10
61086;BME280;46967;48.876;2.136;2023-04-01T17:15:56;100646.84;;;10.95;85.58
61086;BME280;46967;48.876;2.136;2023-04-01T17:25:13;100661.03;;;10.85;84.64
61086;BME280;46967;48.876;2.136;2023-04-01T17:30:06;100674.50;;;10.69;87.24
61086;BME280;46967;48.876;2.136;2023-04-01T17:38:24;100674.16;;;10.54;88.58
61086;BME280;46967;48.876;2.136;2023-04-01T17:49:19;100693.41;;;10.46;91.92
61086;BME280;46967;48.876;2.136;2023-04-01T17:52:06;100704.66;;;10.47;91.55
61086;BME280;46967;48.876;2.136;2023-04-01T18:08:59;100721.88;;;10.48;92.81
61086;BME280;46967;48.876;2.136;2023-04-01T18:16:54;100730.19;;;10.59;93.09
61086;BME280;46967;48.876;2.136;2023-04-01T18:21:53;100739.59;;;10.63;92.61
61086;BME280;46967;48.876;2.136;2023-04-01T18:24:23;100744.09;;;10.58;92.60
61086;BME280;46967;48.876;2.136;2023-04-01T18:27:12;100748.66;;;10.50;92.59
61086;BME280;46967;48.876;2.136;2023-04-01T18:29:51;100753.31;;;10.67;91.75
61086;BME280;46967;48.876;2.136;2023-04-01T18:32:26;100759.75;;;10.55;92.01
61086;BME280;46967;48.876;2.136;2023-04-01T18:35:02;100765.88;;;10.52;92.09
61086;BME280;46967;48.876;2.136;2023-04-01T18:37:43;100767.44;;;10.58;91.95
61086;BME280;46967;48.876;2.136;2023-04-01T18:45:27;100783.16;;;10.54;91.07
61086;BME280;46967;48.876;2.136;2023-04-01T18:51:01;100789.09;;;10.57;91.15
61086;BME280;46967;48.876;2.136;2023-04-01T18:56:24;100806.41;;;10.57;90.86
61086;BME280;46967;48.876;2.136;2023-04-01T18:59:10;100801.22;;;10.57;90.60
61086;BME280;46967;48.876;2.136;2023-04-01T19:01:56;100817.63;;;10.57;90.67
61086;BME280;46967;48.876;2.136;2023-04-01T19:04:45;100815.47;;;10.42;91.38
61086;BME280;46967;48.876;2.136;2023-04-01T19:09:51;100823.22;;;10.43;91.20
61086;BME280;46967;48.876;2.136;2023-04-01T19:15:19;100834.59;;;10.39;91.29
61086;BME280;46967;48.876;2.136;2023-04-01T19:25:51;100847.34;;;10.47;91.45
61086;BME280;46967;48.876;2.136;2023-04-01T19:28:45;100843.03;;;10.46;91.24
61086;BME280;46967;48.876;2.136;2023-04-01T19:39:57;100870.97;;;10.38;91.50
61086;BME280;46967;48.876;2.136;2023-04-01T19:42:49;100875.94;;;10.45;90.56
61086;BME280;46967;48.876;2.136;2023-04-01T19:48:13;100888.16;;;10.40;91.47
61086;BME280;46967;48.876;2.136;2023-04-01T19:56:20;100896.81;;;10.41;91.88
61086;BME280;46967;48.876;2.136;2023-04-01T19:59:02;100898.50;;;10.42;91.44
61086;BME280;46967;48.876;2.136;2023-04-01T20:02:30;100904.59;;;10.41;91.80
61086;BME280;46967;48.876;2.136;2023-04-01T20:07:13;100922.63;;;10.45;90.52
61086;BME280;46967;48.876;2.136;2023-04-01T20:15:29;100924.69;;;10.34;90.56
61086;BME280;46967;48.876;2.136;2023-04-01T20:18:02;100936.03;;;10.28;91.05
61086;BME280;46967;48.876;2.136;2023-04-01T20:20:31;100938.69;;;10.25;90.54
61086;BME280;46967;48.876;2.136;2023-04-01T20:23:25;100950.88;;;10.23;91.33
61086;BME280;46967;48.876;2.136;2023-04-01T20:25:58;100950.81;;;10.25;91.01
61086;BME280;46967;48.876;2.136;2023-04-01T20:28:37;100952.63;;;10.21;90.76
61086;BME280;46967;48.876;2.136;2023-04-01T20:42:26;100974.44;;;10.14;90.95
61086;BME280;46967;48.876;2.136;2023-04-01T20:47:56;100981.34;;;10.15;89.75
61086;BME280;46967;48.876;2.136;2023-04-01T20:50:34;100991.00;;;10.08;90.29
61086;BME280;46967;48.876;2.136;2023-04-01T20:53:28;100993.53;;;10.10;90.82
61086;BME280;46967;48.876;2.136;2023-04-01T21:01:37;100994.31;;;10.15;90.43
61086;BME280;46967;48.876;2.136;2023-04-01T21:09:48;101005.91;;;9.98;91.07
61086;BME280;46967;48.876;2.136;2023-04-01T21:12:37;101010.16;;;10.03;90.70
61086;BME280;46967;48.876;2.136;2023-04-01T21:15:22;101010.03;;;10.07;90.47
61086;BME280;46967;48.876;2.136;2023-04-01T21:26:48;101020.75;;;9.93;90.42
61086;BME280;46967;48.876;2.136;2023-04-01T21:32:25;101015.56;;;9.93;89.48
61086;BME280;46967;48.876;2.136;2023-04-01T21:52:01;101039.94;;;9.85;87.91
61086;BME280;46967;48.876;2.136;2023-04-01T21:55:00;101045.22;;;9.80;88.30
61086;BME280;46967;48.876;2.136;2023-04-01T22:01:06;101040.84;;;9.84;88.08
61086;BME280;46967;48.876;2.136;2023-04-01T22:06:16;101046.69;;;9.92;88.56
61086;BME280;46967;48.876;2.136;2023-04-01T22:16:45;101055.88;;;9.69;88.89
61086;BME280;46967;48.876;2.136;2023-04-01T22:32:52;101079.16;;;9.71;88.89
61086;BME280;46967;48.876;2.136;2023-04-01T22:40:47;101077.66;;;9.59;89.29
61086;BME280;46967;48.876;2.136;2023-04-01T22:43:39;101083.75;;;9.58;89.50
61086;BME280;46967;48.876;2.136;2023-04-01T22:46:23;101088.84;;;9.61;89.15
61086;BME280;46967;48.876;2.136;2023-04-01T22:54:27;101095.09;;;9.52;89.09
61086;BME280;46967;48.876;2.136;2023-04-01T22:57:02;101096.88;;;9.50;89.55
61086;BME280;46967;48.876;2.136;2023-04-01T22:59:37;101098.47;;;9.56;89.26
61086;BME280;46967;48.876;2.136;2023-04-01T23:02:15;101101.00;;;9.57;89.01
61086;BME280;46967;48.876;2.136;2023-04-01T23:04:47;101111.59;;;9.47;89.07
61086;BME280;46967;48.876;2.136;2023-04-01T23:10:39;101098.75;;;9.40;88.82
61086;BME280;46967;48.876;2.136;2023-04-01T23:13:12;101104.81;;;9.41;89.23
61086;BME280;46967;48.876;2.136;2023-04-01T23:15:40;101106.50;;;9.42;89.60
61086;BME280;46967;48.876;2.136;2023-04-01T23:21:23;101109.09;;;9.42;89.29